sensor_id;sensor_type;location;lat;lon;timestamp;P1;durP1;ratioP1;P2;durP2;ratioP2
22983;SDS011;11658;48.908;9.140;2023-04-06T03:00:54;8.73;;;6.70;;
22983;SDS011;11658;48.908;9.140;2023-04-06T03:03:22;9.67;;;7.30;;
22983;SDS011;11658;48.908;9.140;2023-04-06T03:05:49;8.37;;;6.60;;
22983;SDS011;11658;48.908;9.140;2023-04-06T03:08:15;9.77;;;7.00;;
22983;SDS011;11658;48.908;9.140;2023-04-06T03:10:43;8.23;;;6.90;;
22983;SDS011;11658;48.908;9.140;2023-04-06T03:13:09;7.37;;;6.33;;
22983;SDS011;11658;48.908;9.140;2023-04-06T03:15:35;10.67;;;7.40;;
22983;SDS011;11658;48.908;9.140;2023-04-06T03:18:03;8.40;;;7.03;;
22983;SDS011;11658;48.908;9.140;2023-04-06T03:20:30;10.33;;;7.63;;
22983;SDS011;11658;48.908;9.140;2023-04-06T03:22:56;8.43;;;7.27;;
22983;SDS011;11658;48.908;9.140;2023-04-06T03:25:27;8.87;;;7.20;;
22983;SDS011;11658;48.908;9.140;2023-04-06T03:27:55;8.97;;;7.30;;
22983;SDS011;11658;48.908;9.140;2023-04-06T03:30:21;11.37;;;7.30;;
22983;SDS011;11658;48.908;9.140;2023-04-06T03:32:47;8.17;;;7.00;;
22983;SDS011;11658;48.908;9.140;2023-04-06T03:35:13;8.23;;;6.93;;
22983;SDS011;11658;48.908;9.140;2023-04-06T03:37:38;9.33;;;7.93;;
22983;SDS011;11658;48.908;9.140;2023-04-06T03:40:04;7.87;;;6.80;;
22983;SDS011;11658;48.908;9.140;2023-04-06T03:42:31;9.67;;;6.63;;
22983;SDS011;11658;48.908;9.140;2023-04-06T03:44:57;9.27;;;6.80;;
22983;SDS011;11658;48.908;9.140;2023-04-06T03:47:23;8.73;;;6.87;;
22983;SDS011;11658;48.908;9.140;2023-04-06T03:49:49;8.47;;;6.77;;
22983;SDS011;11658;48.908;9.140;2023-04-06T03:52:15;9.13;;;6.83;;
22983;SDS011;11658;48.908;9.140;2023-04-06T03:54:41;12.07;;;7.17;;
22983;SDS011;11658;48.908;9.140;2023-04-06T03:57:06;7.30;;;6.40;;
22983;SDS011;11658;48.908;9.140;2023-04-06T03:59:32;8.37;;;7.03;;
22983;SDS011;11658;48.908;9.140;2023-04-06T04:01:58;10.07;;;7.10;;
22983;SDS011;11658;48.908;9.140;2023-04-06T04:04:23;8.40;;;6.83;;
22983;SDS011;11658;48.908;9.140;2023-04-06T04:06:49;8.03;;;6.77;;
22983;SDS011;11658;48.908;9.140;2023-04-06T04:09:14;9.13;;;6.80;;
22983;SDS011;11658;48.908;9.140;2023-04-06T04:11:40;9.60;;;7.03;;
22983;SDS011;11658;48.908;9.140;2023-04-06T04:14:06;7.97;;;6.47;;
22983;SDS011;11658;48.908;9.140;2023-04-06T04:16:31;6.63;;;5.93;;
22983;SDS011;11658;48.908;9.140;2023-04-06T04:18:57;8.57;;;7.10;;
22983;SDS011;11658;48.908;9.140;2023-04-06T04:21:23;7.93;;;6.70;;
22983;SDS011;11658;48.908;9.140;2023-04-06T04:23:50;8.77;;;7.10;;
22983;SDS011;11658;48.908;9.140;2023-04-06T04:26:17;9.43;;;6.77;;
22983;SDS011;11658;48.908;9.140;2023-04-06T04:28:43;7.20;;;6.30;;
22983;SDS011;11658;48.908;9.140;2023-04-06T04:31:09;9.60;;;6.77;;
22983;SDS011;11658;48.908;9.140;2023-04-06T04:33:35;7.93;;;6.77;;
22983;SDS011;11658;48.908;9.140;2023-04-06T04:36:00;9.77;;;7.30;;
22983;SDS011;11658;48.908;9.140;2023-04-06T04:38:26;7.27;;;6.43;;
22983;SDS011;11658;48.908;9.140;2023-04-06T04:40:52;10.87;;;6.77;;
22983;SDS011;11658;48.908;9.140;2023-04-06T04:43:17;8.07;;;7.10;;
22983;SDS011;11658;48.908;9.140;2023-04-06T04:45:43;7.40;;;6.50;;
22983;SDS011;11658;48.908;9.140;2023-04-06T04:48:08;7.20;;;6.30;;
22983;SDS011;11658;48.908;9.140;2023-04-06T04:50:34;8.27;;;6.83;;
22983;SDS011;11658;48.908;9.140;2023-04-06T04:53:00;8.30;;;6.90;;
22983;SDS011;11658;48.908;9.140;2023-04-06T04:55:27;11.53;;;7.03;;
22983;SDS011;11658;48.908;9.140;2023-04-06T04:57:54;9.20;;;6.27;;
22983;SDS011;11658;48.908;9.140;2023-04-06T05:00:19;8.57;;;6.57;;
22983;SDS011;11658;48.908;9.140;2023-04-06T05:02:45;8.37;;;6.67;;
22983;SDS011;11658;48.908;9.140;2023-04-06T05:05:11;9.27;;;6.77;;
22983;SDS011;11658;48.908;9.140;2023-04-06T05:07:37;9.23;;;7.07;;
22983;SDS011;11658;48.908;9.140;2023-04-06T05:10:02;8.57;;;6.93;;
22983;SDS011;11658;48.908;9.140;2023-04-06T05:12:28;7.87;;;7.07;;
22983;SDS011;11658;48.908;9.140;2023-04-06T05:14:54;9.70;;;6.93;;
22983;SDS011;11658;48.908;9.140;2023-04-06T05:17:20;9.17;;;7.37;;
22983;SDS011;11658;48.908;9.140;2023-04-06T05:19:45;7.90;;;7.10;;
22983;SDS011;11658;48.908;9.140;2023-04-06T05:22:11;11.00;;;6.80;;
22983;SDS011;11658;48.908;9.140;2023-04-06T05:24:39;12.20;;;7.43;;
22983;SDS011;11658;48.908;9.140;2023-04-06T05:27:05;7.20;;;6.50;;
22983;SDS011;11658;48.908;9.140;2023-04-06T05:29:31;10.93;;;7.40;;
22983;SDS011;11658;48.908;9.140;2023-04-06T05:31:57;9.40;;;7.07;;
22983;SDS011;11658;48.908;9.140;2023-04-06T05:34:22;7.90;;;7.07;;
22983;SDS011;11658;48.908;9.140;2023-04-06T05:36:48;8.77;;;6.40;;
22983;SDS011;11658;48.908;9.140;2023-04-06T05:39:14;7.63;;;6.93;;
22983;SDS011;11658;48.908;9.140;2023-04-06T05:41:40;8.97;;;7.70;;
22983;SDS011;11658;48.908;9.140;2023-04-06T05:44:06;10.23;;;7.33;;
22983;SDS011;11658;48.908;9.140;2023-04-06T05:46:31;9.17;;;7.57;;
22983;SDS011;11658;48.908;9.140;2023-04-06T05:48:57;11.00;;;7.13;;
22983;SDS011;11658;48.908;9.140;2023-04-06T05:51:23;8.73;;;7.83;;
22983;SDS011;11658;48.908;9.140;2023-04-06T05:53:48;8.67;;;6.77;;
22983;SDS011;11658;48.908;9.140;2023-04-06T05:56:14;9.50;;;7.63;;
22983;SDS011;11658;48.908;9.140;2023-04-06T05:58:40;9.10;;;7.97;;
22983;SDS011;11658;48.908;9.140;2023-04-06T06:01:06;11.83;;;8.10;;
22983;SDS011;11658;48.908;9.140;2023-04-06T06:03:32;9.80;;;7.83;;
22983;SDS011;11658;48.908;9.140;2023-04-06T06:06:03;13.70;;;7.97;;
22983;SDS011;11658;48.908;9.140;2023-04-06T06:08:30;13.23;;;8.07;;
22983;SDS011;11658;48.908;9.140;2023-04-06T06:10:56;13.00;;;8.30;;
22983;SDS011;11658;48.908;9.140;2023-04-06T06:13:22;10.40;;;7.47;;
22983;SDS011;11658;48.908;9.140;2023-04-06T06:15:49;10.27;;;7.67;;
22983;SDS011;11658;48.908;9.140;2023-04-06T06:18:14;9.17;;;7.30;;
22983;SDS011;11658;48.908;9.140;2023-04-06T06:20:40;12.77;;;7.80;;
22983;SDS011;11658;48.908;9.140;2023-04-06T06:23:06;8.67;;;7.20;;
22983;SDS011;11658;48.908;9.140;2023-04-06T06:25:31;9.13;;;7.17;;
22983;SDS011;11658;48.908;9.140;2023-04-06T06:27:58;9.30;;;7.60;;
22983;SDS011;11658;48.908;9.140;2023-04-06T06:30:23;11.43;;;6.63;;
22983;SDS011;11658;48.908;9.140;2023-04-06T06:32:49;9.23;;;7.47;;
22983;SDS011;11658;48.908;9.140;2023-04-06T06:35:15;8.33;;;7.27;;
22983;SDS011;11658;48.908;9.140;2023-04-06T06:37:41;10.10;;;7.50;;
22983;SDS011;11658;48.908;9.140;2023-04-06T06:40:08;8.70;;;7.33;;
22983;SDS011;11658;48.908;9.140;2023-04-06T06:42:35;8.90;;;7.13;;
22983;SDS011;11658;48.908;9.140;2023-04-06T06:45:01;9.17;;;7.13;;
22983;SDS011;11658;48.908;9.140;2023-04-06T06:47:26;8.70;;;7.40;;
22983;SDS011;11658;48.908;9.140;2023-04-06T06:49:52;9.20;;;7.73;;
22983;SDS011;11658;48.908;9.140;2023-04-06T06:52:17;8.03;;;7.20;;
22983;SDS011;11658;48.908;9.140;2023-04-06T06:54:43;10.43;;;6.70;;
22983;SDS011;11658;48.908;9.140;2023-04-06T06:57:09;10.47;;;7.57;;
22983;SDS011;11658;48.908;9.140;2023-04-06T06:59:35;8.07;;;6.77;;
22983;SDS011;11658;48.908;9.140;2023-04-06T07:02:01;11.80;;;7.53;;
22983;SDS011;11658;48.908;9.140;2023-04-06T07:04:26;7.80;;;7.00;;
22983;SDS011;11658;48.908;9.140;2023-04-06T07:06:52;7.83;;;7.03;;
22983;SDS011;11658;48.908;9.140;2023-04-06T07:09:18;9.27;;;7.23;;
22983;SDS011;11658;48.908;9.140;2023-04-06T07:11:44;8.07;;;7.20;;
22983;SDS011;11658;48.908;9.140;2023-04-06T07:14:09;9.80;;;7.27;;
22983;SDS011;11658;48.908;9.140;2023-04-06T07:16:36;7.27;;;6.47;;
22983;SDS011;11658;48.908;9.140;2023-04-06T07:19:02;10.77;;;7.10;;
22983;SDS011;11658;48.908;9.140;2023-04-06T07:21:28;9.23;;;7.47;;
22983;SDS011;11658;48.908;9.140;2023-04-06T07:23:53;13.70;;;7.50;;
22983;SDS011;11658;48.908;9.140;2023-04-06T07:26:19;8.10;;;7.23;;
22983;SDS011;11658;48.908;9.140;2023-04-06T07:28:45;12.33;;;7.73;;
22983;SDS011;11658;48.908;9.140;2023-04-06T07:31:11;9.77;;;8.00;;
22983;SDS011;11658;48.908;9.140;2023-04-06T07:33:36;8.37;;;7.00;;
22983;SDS011;11658;48.908;9.140;2023-04-06T07:36:02;8.83;;;6.93;;
22983;SDS011;11658;48.908;9.140;2023-04-06T07:38:28;7.90;;;6.70;;
22983;SDS011;11658;48.908;9.140;2023-04-06T07:40:53;9.47;;;7.00;;
22983;SDS011;11658;48.908;9.140;2023-04-06T07:43:19;10.03;;;7.40;;
22983;SDS011;11658;48.908;9.140;2023-04-06T07:45:45;7.20;;;6.47;;
22983;SDS011;11658;48.908;9.140;2023-04-06T07:48:10;8.63;;;7.07;;
22983;SDS011;11658;48.908;9.140;2023-04-06T07:50:36;9.73;;;7.40;;
22983;SDS011;11658;48.908;9.140;2023-04-06T07:53:02;9.23;;;7.30;;
22983;SDS011;11658;48.908;9.140;2023-04-06T07:55:27;9.20;;;7.00;;
22983;SDS011;11658;48.908;9.140;2023-04-06T07:57:53;9.07;;;7.20;;
22983;SDS011;11658;48.908;9.140;2023-04-06T08:00:19;10.30;;;7.17;;
22983;SDS011;11658;48.908;9.140;2023-04-06T08:02:45;10.83;;;7.80;;
22983;SDS011;11658;48.908;9.140;2023-04-06T08:05:11;8.70;;;7.63;;
22983;SDS011;11658;48.908;9.140;2023-04-06T08:07:36;9.90;;;7.13;;
22983;SDS011;11658;48.908;9.140;2023-04-06T08:10:02;9.87;;;6.83;;
22983;SDS011;11658;48.908;9.140;2023-04-06T08:12:28;10.40;;;7.30;;
22983;SDS011;11658;48.908;9.140;2023-04-06T08:14:54;11.23;;;6.87;;
22983;SDS011;11658;48.908;9.140;2023-04-06T08:17:20;9.00;;;7.23;;
22983;SDS011;11658;48.908;9.140;2023-04-06T08:19:45;10.63;;;7.37;;
22983;SDS011;11658;48.908;9.140;2023-04-06T08:22:11;8.23;;;7.40;;
22983;SDS011;11658;48.908;9.140;2023-04-06T08:24:37;9.00;;;6.97;;
22983;SDS011;11658;48.908;9.140;2023-04-06T08:27:03;10.40;;;7.07;;
22983;SDS011;11658;48.908;9.140;2023-04-06T08:29:28;7.67;;;6.87;;
22983;SDS011;11658;48.908;9.140;2023-04-06T08:31:54;11.30;;;7.10;;
22983;SDS011;11658;48.908;9.140;2023-04-06T08:34:20;10.43;;;7.57;;
22983;SDS011;11658;48.908;9.140;2023-04-06T08:36:46;8.37;;;6.83;;
22983;SDS011;11658;48.908;9.140;2023-04-06T08:39:12;9.10;;;7.30;;
22983;SDS011;11658;48.908;9.140;2023-04-06T08:41:38;8.27;;;6.70;;
22983;SDS011;11658;48.908;9.140;2023-04-06T08:44:06;7.07;;;6.37;;
22983;SDS011;11658;48.908;9.140;2023-04-06T08:46:32;10.80;;;6.90;;
22983;SDS011;11658;48.908;9.140;2023-04-06T08:48:58;11.37;;;6.57;;
22983;SDS011;11658;48.908;9.140;2023-04-06T08:51:25;6.77;;;6.07;;
22983;SDS011;11658;48.908;9.140;2023-04-06T08:53:52;7.33;;;6.10;;
22983;SDS011;11658;48.908;9.140;2023-04-06T08:56:20;7.70;;;5.93;;
22983;SDS011;11658;48.908;9.140;2023-04-06T08:58:46;7.40;;;6.47;;
22983;SDS011;11658;48.908;9.140;2023-04-06T09:01:13;7.30;;;6.10;;
22983;SDS011;11658;48.908;9.140;2023-04-06T09:03:41;7.27;;;6.20;;
22983;SDS011;11658;48.908;9.140;2023-04-06T09:06:08;10.17;;;6.43;;
22983;SDS011;11658;48.908;9.140;2023-04-06T09:08:34;6.83;;;5.67;;
22983;SDS011;11658;48.908;9.140;2023-04-06T09:11:01;6.60;;;5.60;;
22983;SDS011;11658;48.908;9.140;2023-04-06T09:13:27;7.77;;;6.37;;
22983;SDS011;11658;48.908;9.140;2023-04-06T09:16:01;6.57;;;5.37;;
22983;SDS011;11658;48.908;9.140;2023-04-06T09:18:31;8.00;;;5.70;;
22983;SDS011;11658;48.908;9.140;2023-04-06T09:21:00;7.13;;;5.90;;
22983;SDS011;11658;48.908;9.140;2023-04-06T09:23:27;7.80;;;6.00;;
22983;SDS011;11658;48.908;9.140;2023-04-06T09:26:06;7.03;;;6.10;;
22983;SDS011;11658;48.908;9.140;2023-04-06T09:28:46;6.50;;;5.40;;
22983;SDS011;11658;48.908;9.140;2023-04-06T09:31:25;6.50;;;5.37;;
22983;SDS011;11658;48.908;9.140;2023-04-06T09:33:51;7.43;;;6.03;;
22983;SDS011;11658;48.908;9.140;2023-04-06T09:36:18;7.13;;;6.03;;
22983;SDS011;11658;48.908;9.140;2023-04-06T09:39:03;7.13;;;6.40;;
22983;SDS011;11658;48.908;9.140;2023-04-06T09:41:33;7.63;;;5.73;;
22983;SDS011;11658;48.908;9.140;2023-04-06T09:44:03;7.40;;;5.57;;
22983;SDS011;11658;48.908;9.140;2023-04-06T09:46:43;8.60;;;6.20;;
22983;SDS011;11658;48.908;9.140;2023-04-06T09:49:10;6.57;;;5.87;;
22983;SDS011;11658;48.908;9.140;2023-04-06T09:54:06;10.83;;;6.40;;
22983;SDS011;11658;48.908;9.140;2023-04-06T09:59:12;7.23;;;5.87;;
22983;SDS011;11658;48.908;9.140;2023-04-06T10:01:43;7.57;;;6.43;;
22983;SDS011;11658;48.908;9.140;2023-04-06T10:06:47;6.23;;;5.63;;
22983;SDS011;11658;48.908;9.140;2023-04-06T10:09:17;6.73;;;5.77;;
22983;SDS011;11658;48.908;9.140;2023-04-06T10:11:43;6.67;;;5.47;;
22983;SDS011;11658;48.908;9.140;2023-04-06T10:14:10;9.77;;;6.50;;
22983;SDS011;11658;48.908;9.140;2023-04-06T10:16:36;6.67;;;5.43;;
22983;SDS011;11658;48.908;9.140;2023-04-06T10:19:05;6.63;;;5.60;;
22983;SDS011;11658;48.908;9.140;2023-04-06T10:21:36;6.53;;;5.83;;
22983;SDS011;11658;48.908;9.140;2023-04-06T10:24:07;7.40;;;5.87;;
22983;SDS011;11658;48.908;9.140;2023-04-06T10:26:38;8.73;;;5.90;;
22983;SDS011;11658;48.908;9.140;2023-04-06T10:29:04;5.77;;;5.17;;
22983;SDS011;11658;48.908;9.140;2023-04-06T10:31:29;6.83;;;6.13;;
22983;SDS011;11658;48.908;9.140;2023-04-06T10:34:01;7.30;;;6.43;;
22983;SDS011;11658;48.908;9.140;2023-04-06T10:36:28;7.27;;;5.80;;
22983;SDS011;11658;48.908;9.140;2023-04-06T10:39:02;7.27;;;6.40;;
22983;SDS011;11658;48.908;9.140;2023-04-06T10:41:36;8.97;;;6.50;;
22983;SDS011;11658;48.908;9.140;2023-04-06T10:44:05;8.07;;;6.70;;
22983;SDS011;11658;48.908;9.140;2023-04-06T10:46:32;6.80;;;6.10;;
22983;SDS011;11658;48.908;9.140;2023-04-06T10:49:09;7.67;;;6.37;;
22983;SDS011;11658;48.908;9.140;2023-04-06T10:51:37;11.60;;;7.47;;
22983;SDS011;11658;48.908;9.140;2023-04-06T10:54:03;8.13;;;6.87;;
22983;SDS011;11658;48.908;9.140;2023-04-06T10:56:30;7.53;;;6.70;;
22983;SDS011;11658;48.908;9.140;2023-04-06T10:58:59;7.00;;;6.30;;
22983;SDS011;11658;48.908;9.140;2023-04-06T11:01:25;8.87;;;7.13;;
22983;SDS011;11658;48.908;9.140;2023-04-06T11:03:54;8.17;;;6.70;;
22983;SDS011;11658;48.908;9.140;2023-04-06T11:06:24;7.40;;;6.60;;
22983;SDS011;11658;48.908;9.140;2023-04-06T11:08:55;7.30;;;6.20;;
22983;SDS011;11658;48.908;9.140;2023-04-06T11:11:22;7.00;;;6.00;;
22983;SDS011;11658;48.908;9.140;2023-04-06T11:13:52;8.13;;;6.63;;
22983;SDS011;11658;48.908;9.140;2023-04-06T11:16:23;8.17;;;6.27;;
22983;SDS011;11658;48.908;9.140;2023-04-06T11:24:17;6.43;;;5.50;;
22983;SDS011;11658;48.908;9.140;2023-04-06T11:26:45;7.03;;;5.80;;
22983;SDS011;11658;48.908;9.140;2023-04-06T11:31:48;7.87;;;6.17;;
22983;SDS011;11658;48.908;9.140;2023-04-06T11:34:21;11.03;;;6.10;;
22983;SDS011;11658;48.908;9.140;2023-04-06T11:36:55;6.90;;;5.93;;
22983;SDS011;11658;48.908;9.140;2023-04-06T11:39:22;7.10;;;6.40;;
22983;SDS011;11658;48.908;9.140;2023-04-06T11:41:50;7.10;;;6.13;;
22983;SDS011;11658;48.908;9.140;2023-04-06T11:47:00;6.80;;;5.83;;
22983;SDS011;11658;48.908;9.140;2023-04-06T11:49:27;9.47;;;6.00;;
22983;SDS011;11658;48.908;9.140;2023-04-06T11:51:53;9.40;;;6.00;;
22983;SDS011;11658;48.908;9.140;2023-04-06T11:54:29;7.47;;;6.60;;
22983;SDS011;11658;48.908;9.140;2023-04-06T11:56:59;8.30;;;6.50;;
22983;SDS011;11658;48.908;9.140;2023-04-06T11:59:25;7.40;;;5.87;;
22983;SDS011;11658;48.908;9.140;2023-04-06T12:01:52;7.97;;;6.23;;
22983;SDS011;11658;48.908;9.140;2023-04-06T12:04:18;6.93;;;6.23;;
22983;SDS011;11658;48.908;9.140;2023-04-06T12:06:44;8.50;;;6.20;;
22983;SDS011;11658;48.908;9.140;2023-04-06T12:09:10;8.07;;;5.93;;
22983;SDS011;11658;48.908;9.140;2023-04-06T12:11:35;7.00;;;6.30;;
22983;SDS011;11658;48.908;9.140;2023-04-06T12:14:01;7.27;;;6.20;;
22983;SDS011;11658;48.908;9.140;2023-04-06T12:16:29;7.40;;;6.40;;
22983;SDS011;11658;48.908;9.140;2023-04-06T12:18:55;8.63;;;5.90;;
22983;SDS011;11658;48.908;9.140;2023-04-06T12:21:21;6.77;;;6.07;;
22983;SDS011;11658;48.908;9.140;2023-04-06T12:23:47;8.37;;;6.33;;
22983;SDS011;11658;48.908;9.140;2023-04-06T12:26:12;7.10;;;5.83;;
22983;SDS011;11658;48.908;9.140;2023-04-06T12:28:38;7.73;;;6.27;;
22983;SDS011;11658;48.908;9.140;2023-04-06T12:31:04;8.10;;;6.10;;
22983;SDS011;11658;48.908;9.140;2023-04-06T12:33:29;6.30;;;5.57;;
22983;SDS011;11658;48.908;9.140;2023-04-06T12:35:55;7.53;;;6.17;;
22983;SDS011;11658;48.908;9.140;2023-04-06T12:38:21;8.47;;;6.17;;
22983;SDS011;11658;48.908;9.140;2023-04-06T12:40:46;7.87;;;6.73;;
22983;SDS011;11658;48.908;9.140;2023-04-06T12:43:12;10.20;;;6.90;;
22983;SDS011;11658;48.908;9.140;2023-04-06T12:45:38;11.07;;;6.73;;
22983;SDS011;11658;48.908;9.140;2023-04-06T12:48:05;7.70;;;6.80;;
22983;SDS011;11658;48.908;9.140;2023-04-06T12:50:31;8.90;;;6.77;;
22983;SDS011;11658;48.908;9.140;2023-04-06T12:52:57;8.00;;;6.57;;
22983;SDS011;11658;48.908;9.140;2023-04-06T12:55:23;8.33;;;6.37;;
22983;SDS011;11658;48.908;9.140;2023-04-06T12:57:48;7.17;;;6.47;;
22983;SDS011;11658;48.908;9.140;2023-04-06T13:00:14;8.57;;;6.23;;
22983;SDS011;11658;48.908;9.140;2023-04-06T13:02:40;7.40;;;6.33;;
22983;SDS011;11658;48.908;9.140;2023-04-06T13:05:11;6.87;;;6.00;;
22983;SDS011;11658;48.908;9.140;2023-04-06T13:07:37;6.60;;;5.43;;
22983;SDS011;11658;48.908;9.140;2023-04-06T13:10:03;10.17;;;6.93;;
22983;SDS011;11658;48.908;9.140;2023-04-06T13:12:29;6.30;;;5.70;;
22983;SDS011;11658;48.908;9.140;2023-04-06T13:14:55;7.10;;;5.77;;
22983;SDS011;11658;48.908;9.140;2023-04-06T13:17:21;6.10;;;5.30;;
22983;SDS011;11658;48.908;9.140;2023-04-06T13:19:47;6.60;;;4.97;;
22983;SDS011;11658;48.908;9.140;2023-04-06T13:22:13;5.77;;;5.27;;
22983;SDS011;11658;48.908;9.140;2023-04-06T13:24:38;7.87;;;5.37;;
22983;SDS011;11658;48.908;9.140;2023-04-06T13:27:04;5.47;;;4.97;;
22983;SDS011;11658;48.908;9.140;2023-04-06T13:29:30;6.40;;;5.80;;
22983;SDS011;11658;48.908;9.140;2023-04-06T13:31:55;6.60;;;5.70;;
22983;SDS011;11658;48.908;9.140;2023-04-06T13:34:21;8.33;;;5.47;;
22983;SDS011;11658;48.908;9.140;2023-04-06T13:36:47;8.10;;;6.60;;
22983;SDS011;11658;48.908;9.140;2023-04-06T13:39:12;8.87;;;5.90;;
22983;SDS011;11658;48.908;9.140;2023-04-06T13:41:38;7.77;;;6.03;;
22983;SDS011;11658;48.908;9.140;2023-04-06T13:44:05;7.47;;;5.97;;
22983;SDS011;11658;48.908;9.140;2023-04-06T13:46:33;10.43;;;6.30;;
22983;SDS011;11658;48.908;9.140;2023-04-06T13:48:59;7.33;;;6.00;;
22983;SDS011;11658;48.908;9.140;2023-04-06T13:51:24;10.63;;;5.90;;
22983;SDS011;11658;48.908;9.140;2023-04-06T13:53:51;10.70;;;6.73;;
22983;SDS011;11658;48.908;9.140;2023-04-06T13:56:18;7.40;;;6.43;;
22983;SDS011;11658;48.908;9.140;2023-04-06T13:58:44;7.37;;;5.47;;
22983;SDS011;11658;48.908;9.140;2023-04-06T14:01:10;10.10;;;6.20;;
22983;SDS011;11658;48.908;9.140;2023-04-06T14:03:35;8.90;;;6.30;;
22983;SDS011;11658;48.908;9.140;2023-04-06T14:06:09;6.93;;;5.73;;
22983;SDS011;11658;48.908;9.140;2023-04-06T14:08:35;6.73;;;5.50;;
22983;SDS011;11658;48.908;9.140;2023-04-06T14:11:01;7.27;;;6.00;;
22983;SDS011;11658;48.908;9.140;2023-04-06T14:13:26;7.17;;;5.93;;
22983;SDS011;11658;48.908;9.140;2023-04-06T14:15:53;7.93;;;6.57;;
22983;SDS011;11658;48.908;9.140;2023-04-06T14:18:19;8.30;;;5.93;;
22983;SDS011;11658;48.908;9.140;2023-04-06T14:20:45;6.53;;;5.93;;
22983;SDS011;11658;48.908;9.140;2023-04-06T14:23:10;7.13;;;5.50;;
22983;SDS011;11658;48.908;9.140;2023-04-06T14:25:36;9.60;;;5.90;;
22983;SDS011;11658;48.908;9.140;2023-04-06T14:28:02;7.80;;;5.57;;
22983;SDS011;11658;48.908;9.140;2023-04-06T14:30:29;9.07;;;6.07;;
22983;SDS011;11658;48.908;9.140;2023-04-06T14:32:58;7.70;;;5.73;;
22983;SDS011;11658;48.908;9.140;2023-04-06T14:35:23;6.40;;;5.70;;
22983;SDS011;11658;48.908;9.140;2023-04-06T14:37:50;6.90;;;5.90;;
22983;SDS011;11658;48.908;9.140;2023-04-06T14:40:16;6.77;;;5.60;;
22983;SDS011;11658;48.908;9.140;2023-04-06T14:42:42;8.27;;;5.73;;
22983;SDS011;11658;48.908;9.140;2023-04-06T14:45:07;8.23;;;6.43;;
22983;SDS011;11658;48.908;9.140;2023-04-06T14:47:33;6.20;;;5.33;;
22983;SDS011;11658;48.908;9.140;2023-04-06T14:49:59;9.27;;;6.07;;
22983;SDS011;11658;48.908;9.140;2023-04-06T14:52:24;7.43;;;5.87;;
22983;SDS011;11658;48.908;9.140;2023-04-06T14:54:50;6.57;;;5.53;;
22983;SDS011;11658;48.908;9.140;2023-04-06T14:57:16;7.53;;;6.53;;
22983;SDS011;11658;48.908;9.140;2023-04-06T14:59:41;8.23;;;6.10;;
22983;SDS011;11658;48.908;9.140;2023-04-06T15:02:07;7.73;;;6.07;;
22983;SDS011;11658;48.908;9.140;2023-04-06T15:04:36;7.97;;;5.40;;
22983;SDS011;11658;48.908;9.140;2023-04-06T15:07:01;8.20;;;5.60;;
22983;SDS011;11658;48.908;9.140;2023-04-06T15:09:27;8.20;;;5.40;;
22983;SDS011;11658;48.908;9.140;2023-04-06T15:11:52;7.33;;;5.60;;
22983;SDS011;11658;48.908;9.140;2023-04-06T15:14:18;8.37;;;5.43;;
22983;SDS011;11658;48.908;9.140;2023-04-06T15:16:46;8.60;;;5.50;;
22983;SDS011;11658;48.908;9.140;2023-04-06T15:19:12;7.00;;;6.00;;
22983;SDS011;11658;48.908;9.140;2023-04-06T15:21:38;7.87;;;5.80;;
22983;SDS011;11658;48.908;9.140;2023-04-06T15:24:03;7.03;;;5.77;;
22983;SDS011;11658;48.908;9.140;2023-04-06T15:26:31;7.10;;;5.87;;
22983;SDS011;11658;48.908;9.140;2023-04-06T15:28:56;6.43;;;5.23;;
22983;SDS011;11658;48.908;9.140;2023-04-06T15:31:22;6.50;;;5.23;;
22983;SDS011;11658;48.908;9.140;2023-04-06T15:33:47;6.70;;;5.30;;
22983;SDS011;11658;48.908;9.140;2023-04-06T15:36:23;6.60;;;5.50;;
22983;SDS011;11658;48.908;9.140;2023-04-06T15:38:54;7.67;;;5.57;;
22983;SDS011;11658;48.908;9.140;2023-04-06T15:41:22;8.37;;;5.87;;
22983;SDS011;11658;48.908;9.140;2023-04-06T15:43:48;6.33;;;5.50;;
22983;SDS011;11658;48.908;9.140;2023-04-06T15:46:16;9.03;;;6.00;;
22983;SDS011;11658;48.908;9.140;2023-04-06T15:48:43;7.63;;;6.43;;
22983;SDS011;11658;48.908;9.140;2023-04-06T15:51:08;8.70;;;6.10;;
22983;SDS011;11658;48.908;9.140;2023-04-06T15:53:34;6.77;;;5.83;;
22983;SDS011;11658;48.908;9.140;2023-04-06T15:56:00;7.20;;;5.90;;
22983;SDS011;11658;48.908;9.140;2023-04-06T15:58:27;6.37;;;5.70;;
22983;SDS011;11658;48.908;9.140;2023-04-06T16:00:53;6.00;;;5.40;;
22983;SDS011;11658;48.908;9.140;2023-04-06T16:03:19;7.17;;;5.77;;
22983;SDS011;11658;48.908;9.140;2023-04-06T16:05:45;8.20;;;6.40;;
22983;SDS011;11658;48.908;9.140;2023-04-06T16:08:11;8.13;;;6.10;;
22983;SDS011;11658;48.908;9.140;2023-04-06T16:10:38;7.27;;;6.07;;
22983;SDS011;11658;48.908;9.140;2023-04-06T16:13:05;10.87;;;5.57;;
22983;SDS011;11658;48.908;9.140;2023-04-06T16:15:32;6.87;;;5.57;;
22983;SDS011;11658;48.908;9.140;2023-04-06T16:17:58;7.63;;;5.57;;
22983;SDS011;11658;48.908;9.140;2023-04-06T16:20:23;7.30;;;5.90;;
22983;SDS011;11658;48.908;9.140;2023-04-06T16:22:49;6.23;;;5.37;;
22983;SDS011;11658;48.908;9.140;2023-04-06T16:25:15;8.37;;;5.37;;
22983;SDS011;11658;48.908;9.140;2023-04-06T16:27:40;17.47;;;6.20;;
22983;SDS011;11658;48.908;9.140;2023-04-06T16:30:07;8.90;;;5.60;;
22983;SDS011;11658;48.908;9.140;2023-04-06T16:32:33;6.60;;;5.10;;
22983;SDS011;11658;48.908;9.140;2023-04-06T16:34:59;13.63;;;6.40;;
22983;SDS011;11658;48.908;9.140;2023-04-06T16:37:26;5.73;;;5.07;;
22983;SDS011;11658;48.908;9.140;2023-04-06T16:39:53;6.93;;;5.60;;
22983;SDS011;11658;48.908;9.140;2023-04-06T16:42:19;8.37;;;5.40;;
22983;SDS011;11658;48.908;9.140;2023-04-06T16:44:45;6.80;;;4.73;;
22983;SDS011;11658;48.908;9.140;2023-04-06T16:47:14;6.90;;;5.67;;
22983;SDS011;11658;48.908;9.140;2023-04-06T16:49:41;5.40;;;4.63;;
22983;SDS011;11658;48.908;9.140;2023-04-06T16:52:07;6.47;;;4.50;;
22983;SDS011;11658;48.908;9.140;2023-04-06T16:54:33;5.83;;;4.60;;
22983;SDS011;11658;48.908;9.140;2023-04-06T16:56:59;4.90;;;4.40;;
22983;SDS011;11658;48.908;9.140;2023-04-06T16:59:28;6.70;;;4.50;;
22983;SDS011;11658;48.908;9.140;2023-04-06T17:01:54;6.00;;;3.80;;
22983;SDS011;11658;48.908;9.140;2023-04-06T17:04:20;6.03;;;4.00;;
22983;SDS011;11658;48.908;9.140;2023-04-06T17:06:46;5.07;;;3.40;;
22983;SDS011;11658;48.908;9.140;2023-04-06T17:09:12;5.10;;;3.90;;
22983;SDS011;11658;48.908;9.140;2023-04-06T17:11:38;4.57;;;3.57;;
22983;SDS011;11658;48.908;9.140;2023-04-06T17:14:04;5.97;;;3.67;;
22983;SDS011;11658;48.908;9.140;2023-04-06T17:16:30;7.07;;;3.60;;
22983;SDS011;11658;48.908;9.140;2023-04-06T17:18:56;4.50;;;3.60;;
22983;SDS011;11658;48.908;9.140;2023-04-06T17:21:22;3.87;;;3.23;;
22983;SDS011;11658;48.908;9.140;2023-04-06T17:23:47;5.13;;;3.63;;
22983;SDS011;11658;48.908;9.140;2023-04-06T17:26:13;4.57;;;3.53;;
22983;SDS011;11658;48.908;9.140;2023-04-06T17:28:39;6.90;;;3.23;;
22983;SDS011;11658;48.908;9.140;2023-04-06T17:31:08;5.17;;;3.53;;
22983;SDS011;11658;48.908;9.140;2023-04-06T17:33:35;4.43;;;3.53;;
22983;SDS011;11658;48.908;9.140;2023-04-06T17:36:05;4.67;;;3.87;;
22983;SDS011;11658;48.908;9.140;2023-04-06T17:38:33;4.77;;;3.87;;
22983;SDS011;11658;48.908;9.140;2023-04-06T17:40:59;6.87;;;4.07;;
22983;SDS011;11658;48.908;9.140;2023-04-06T17:43:25;9.00;;;4.03;;
22983;SDS011;11658;48.908;9.140;2023-04-06T17:45:51;7.37;;;4.00;;
22983;SDS011;11658;48.908;9.140;2023-04-06T17:48:17;8.00;;;4.50;;
22983;SDS011;11658;48.908;9.140;2023-04-06T17:50:43;6.20;;;3.73;;
22983;SDS011;11658;48.908;9.140;2023-04-06T17:53:09;5.93;;;3.77;;
22983;SDS011;11658;48.908;9.140;2023-04-06T17:55:36;4.83;;;3.97;;
22983;SDS011;11658;48.908;9.140;2023-04-06T17:58:02;6.13;;;4.10;;
22983;SDS011;11658;48.908;9.140;2023-04-06T18:00:28;5.53;;;4.50;;